sensor_id;sensor_type;location;lat;lon;timestamp;P1;durP1;ratioP1;P2;durP2;ratioP2
59854;SDS011;45732;52.850;6.896;2023-07-13T00:00:28;12.40;;;2.70;;
59854;SDS011;45732;52.850;6.896;2023-07-13T00:02:55;8.40;;;2.45;;
59854;SDS011;45732;52.850;6.896;2023-07-13T00:05:22;6.63;;;2.25;;
59854;SDS011;45732;52.850;6.896;2023-07-13T00:07:49;9.75;;;2.55;;
59854;SDS011;45732;52.850;6.896;2023-07-13T00:10:15;11.00;;;2.72;;
59854;SDS011;45732;52.850;6.896;2023-07-13T00:12:41;6.53;;;2.17;;
59854;SDS011;45732;52.850;6.896;2023-07-13T00:15:17;11.30;;;3.03;;
59854;SDS011;45732;52.850;6.896;2023-07-13T00:17:51;8.52;;;2.75;;
59854;SDS011;45732;52.850;6.896;2023-07-13T00:20:19;11.07;;;2.55;;
59854;SDS011;45732;52.850;6.896;2023-07-13T00:22:47;10.00;;;2.42;;
59854;SDS011;45732;52.850;6.896;2023-07-13T00:25:14;13.07;;;2.75;;
59854;SDS011;45732;52.850;6.896;2023-07-13T00:27:41;8.77;;;2.50;;
59854;SDS011;45732;52.850;6.896;2023-07-13T00:30:07;11.20;;;2.67;;
59854;SDS011;45732;52.850;6.896;2023-07-13T00:32:34;7.80;;;2.20;;
59854;SDS011;45732;52.850;6.896;2023-07-13T00:35:00;10.88;;;2.53;;
59854;SDS011;45732;52.850;6.896;2023-07-13T00:37:28;9.73;;;2.35;;
59854;SDS011;45732;52.850;6.896;2023-07-13T00:39:54;7.32;;;2.30;;
59854;SDS011;45732;52.850;6.896;2023-07-13T00:42:19;8.15;;;2.15;;
59854;SDS011;45732;52.850;6.896;2023-07-13T00:47:32;9.90;;;2.75;;
59854;SDS011;45732;52.850;6.896;2023-07-13T00:49:58;10.90;;;2.60;;
59854;SDS011;45732;52.850;6.896;2023-07-13T00:52:25;10.60;;;2.83;;
59854;SDS011;45732;52.850;6.896;2023-07-13T00:54:51;8.13;;;2.40;;
59854;SDS011;45732;52.850;6.896;2023-07-13T00:57:17;8.68;;;2.63;;
59854;SDS011;45732;52.850;6.896;2023-07-13T00:59:46;10.98;;;2.78;;
59854;SDS011;45732;52.850;6.896;2023-07-13T01:02:16;11.23;;;2.92;;
59854;SDS011;45732;52.850;6.896;2023-07-13T01:04:42;8.90;;;2.50;;
59854;SDS011;45732;52.850;6.896;2023-07-13T01:07:09;8.80;;;2.35;;
59854;SDS011;45732;52.850;6.896;2023-07-13T01:09:35;9.52;;;3.13;;
59854;SDS011;45732;52.850;6.896;2023-07-13T01:12:01;11.07;;;3.13;;
59854;SDS011;45732;52.850;6.896;2023-07-13T01:14:28;9.73;;;2.47;;
59854;SDS011;45732;52.850;6.896;2023-07-13T01:16:54;9.23;;;2.38;;
59854;SDS011;45732;52.850;6.896;2023-07-13T01:21:51;12.20;;;2.90;;
59854;SDS011;45732;52.850;6.896;2023-07-13T01:24:18;9.75;;;2.67;;
59854;SDS011;45732;52.850;6.896;2023-07-13T01:26:44;11.75;;;3.05;;
59854;SDS011;45732;52.850;6.896;2023-07-13T01:29:09;11.73;;;2.60;;
59854;SDS011;45732;52.850;6.896;2023-07-13T01:31:35;7.97;;;2.63;;
59854;SDS011;45732;52.850;6.896;2023-07-13T01:34:01;7.85;;;2.85;;
59854;SDS011;45732;52.850;6.896;2023-07-13T01:36:26;10.48;;;2.85;;
59854;SDS011;45732;52.850;6.896;2023-07-13T01:38:52;9.65;;;2.80;;
59854;SDS011;45732;52.850;6.896;2023-07-13T01:41:18;11.15;;;2.83;;
59854;SDS011;45732;52.850;6.896;2023-07-13T01:43:43;9.02;;;2.80;;
59854;SDS011;45732;52.850;6.896;2023-07-13T01:46:09;10.02;;;2.90;;
59854;SDS011;45732;52.850;6.896;2023-07-13T01:48:35;11.07;;;2.85;;
59854;SDS011;45732;52.850;6.896;2023-07-13T01:51:01;10.93;;;2.85;;
59854;SDS011;45732;52.850;6.896;2023-07-13T01:53:26;15.55;;;3.03;;
59854;SDS011;45732;52.850;6.896;2023-07-13T01:55:52;12.02;;;3.15;;
59854;SDS011;45732;52.850;6.896;2023-07-13T01:58:18;11.18;;;2.70;;
59854;SDS011;45732;52.850;6.896;2023-07-13T02:00:43;11.45;;;2.88;;
59854;SDS011;45732;52.850;6.896;2023-07-13T02:03:09;11.48;;;3.25;;
59854;SDS011;45732;52.850;6.896;2023-07-13T02:05:35;12.35;;;3.20;;
59854;SDS011;45732;52.850;6.896;2023-07-13T02:08:01;10.50;;;2.63;;
59854;SDS011;45732;52.850;6.896;2023-07-13T02:10:27;12.38;;;2.80;;
59854;SDS011;45732;52.850;6.896;2023-07-13T02:12:53;9.95;;;2.65;;
59854;SDS011;45732;52.850;6.896;2023-07-13T02:15:19;9.95;;;2.90;;
59854;SDS011;45732;52.850;6.896;2023-07-13T02:17:45;12.02;;;3.08;;
59854;SDS011;45732;52.850;6.896;2023-07-13T02:20:11;9.45;;;2.92;;
59854;SDS011;45732;52.850;6.896;2023-07-13T02:22:37;9.00;;;2.72;;
59854;SDS011;45732;52.850;6.896;2023-07-13T02:25:03;12.32;;;3.13;;
59854;SDS011;45732;52.850;6.896;2023-07-13T02:27:29;10.20;;;3.00;;
59854;SDS011;45732;52.850;6.896;2023-07-13T02:29:54;12.18;;;3.03;;
59854;SDS011;45732;52.850;6.896;2023-07-13T02:32:20;12.70;;;3.03;;
59854;SDS011;45732;52.850;6.896;2023-07-13T02:34:46;10.43;;;3.00;;
59854;SDS011;45732;52.850;6.896;2023-07-13T02:37:12;16.27;;;3.45;;
59854;SDS011;45732;52.850;6.896;2023-07-13T02:39:37;13.15;;;3.58;;
59854;SDS011;45732;52.850;6.896;2023-07-13T02:42:03;10.77;;;3.20;;
59854;SDS011;45732;52.850;6.896;2023-07-13T02:44:29;12.48;;;3.35;;
59854;SDS011;45732;52.850;6.896;2023-07-13T02:46:55;13.63;;;3.38;;
59854;SDS011;45732;52.850;6.896;2023-07-13T02:49:21;9.60;;;3.03;;
59854;SDS011;45732;52.850;6.896;2023-07-13T02:51:46;11.57;;;3.20;;
59854;SDS011;45732;52.850;6.896;2023-07-13T02:54:12;14.43;;;3.22;;
59854;SDS011;45732;52.850;6.896;2023-07-13T02:56:38;12.73;;;2.85;;
59854;SDS011;45732;52.850;6.896;2023-07-13T02:59:05;10.13;;;2.95;;
59854;SDS011;45732;52.850;6.896;2023-07-13T03:01:30;9.77;;;2.92;;
59854;SDS011;45732;52.850;6.896;2023-07-13T03:03:57;13.55;;;3.08;;
59854;SDS011;45732;52.850;6.896;2023-07-13T03:06:23;11.48;;;3.10;;
59854;SDS011;45732;52.850;6.896;2023-07-13T03:08:49;11.48;;;3.28;;
59854;SDS011;45732;52.850;6.896;2023-07-13T03:11:17;10.23;;;2.97;;
59854;SDS011;45732;52.850;6.896;2023-07-13T03:13:44;12.75;;;3.40;;
59854;SDS011;45732;52.850;6.896;2023-07-13T03:16:10;12.45;;;3.55;;
59854;SDS011;45732;52.850;6.896;2023-07-13T03:18:37;16.73;;;3.80;;
59854;SDS011;45732;52.850;6.896;2023-07-13T03:21:03;13.00;;;3.05;;
59854;SDS011;45732;52.850;6.896;2023-07-13T03:23:29;11.35;;;3.30;;
59854;SDS011;45732;52.850;6.896;2023-07-13T03:26:06;13.40;;;3.10;;
59854;SDS011;45732;52.850;6.896;2023-07-13T03:28:35;11.02;;;3.40;;
59854;SDS011;45732;52.850;6.896;2023-07-13T03:31:02;12.35;;;3.35;;
59854;SDS011;45732;52.850;6.896;2023-07-13T03:33:29;11.98;;;3.05;;
59854;SDS011;45732;52.850;6.896;2023-07-13T03:35:55;12.55;;;3.40;;
59854;SDS011;45732;52.850;6.896;2023-07-13T03:38:21;13.60;;;3.47;;
59854;SDS011;45732;52.850;6.896;2023-07-13T03:40:47;10.10;;;3.35;;
59854;SDS011;45732;52.850;6.896;2023-07-13T03:43:14;10.30;;;3.40;;
59854;SDS011;45732;52.850;6.896;2023-07-13T03:45:39;13.25;;;4.15;;
59854;SDS011;45732;52.850;6.896;2023-07-13T03:48:05;11.15;;;3.60;;
59854;SDS011;45732;52.850;6.896;2023-07-13T03:50:31;11.38;;;3.30;;
59854;SDS011;45732;52.850;6.896;2023-07-13T03:52:57;14.68;;;3.83;;
59854;SDS011;45732;52.850;6.896;2023-07-13T03:55:23;13.20;;;3.65;;
59854;SDS011;45732;52.850;6.896;2023-07-13T03:57:59;12.43;;;3.65;;
59854;SDS011;45732;52.850;6.896;2023-07-13T04:00:45;11.43;;;3.22;;
59854;SDS011;45732;52.850;6.896;2023-07-13T04:03:11;11.38;;;3.13;;
59854;SDS011;45732;52.850;6.896;2023-07-13T04:05:36;13.27;;;4.28;;
59854;SDS011;45732;52.850;6.896;2023-07-13T04:08:05;10.40;;;3.40;;
59854;SDS011;45732;52.850;6.896;2023-07-13T04:10:31;10.98;;;3.28;;
59854;SDS011;45732;52.850;6.896;2023-07-13T04:12:57;10.85;;;3.55;;
59854;SDS011;45732;52.850;6.896;2023-07-13T04:15:22;12.55;;;4.10;;
59854;SDS011;45732;52.850;6.896;2023-07-13T04:17:48;11.50;;;3.30;;
59854;SDS011;45732;52.850;6.896;2023-07-13T04:20:14;11.38;;;3.55;;
59854;SDS011;45732;52.850;6.896;2023-07-13T04:22:40;13.75;;;3.83;;
59854;SDS011;45732;52.850;6.896;2023-07-13T04:25:05;11.27;;;4.05;;
59854;SDS011;45732;52.850;6.896;2023-07-13T04:27:31;12.73;;;3.70;;
59854;SDS011;45732;52.850;6.896;2023-07-13T04:29:57;12.52;;;4.40;;
59854;SDS011;45732;52.850;6.896;2023-07-13T04:32:23;14.70;;;3.75;;
59854;SDS011;45732;52.850;6.896;2023-07-13T04:34:48;10.48;;;3.40;;
59854;SDS011;45732;52.850;6.896;2023-07-13T04:37:20;12.20;;;3.75;;
59854;SDS011;45732;52.850;6.896;2023-07-13T04:39:46;11.65;;;3.72;;
59854;SDS011;45732;52.850;6.896;2023-07-13T04:42:11;11.00;;;3.75;;
59854;SDS011;45732;52.850;6.896;2023-07-13T04:44:37;14.65;;;3.95;;
59854;SDS011;45732;52.850;6.896;2023-07-13T04:47:03;15.52;;;4.13;;
59854;SDS011;45732;52.850;6.896;2023-07-13T04:49:29;12.05;;;4.28;;
59854;SDS011;45732;52.850;6.896;2023-07-13T04:51:55;15.02;;;4.07;;
59854;SDS011;45732;52.850;6.896;2023-07-13T04:54:21;11.13;;;4.15;;
59854;SDS011;45732;52.850;6.896;2023-07-13T04:56:47;11.23;;;4.00;;
59854;SDS011;45732;52.850;6.896;2023-07-13T04:59:13;13.13;;;3.92;;
59854;SDS011;45732;52.850;6.896;2023-07-13T05:01:38;10.98;;;3.63;;
59854;SDS011;45732;52.850;6.896;2023-07-13T05:04:05;12.05;;;3.83;;
59854;SDS011;45732;52.850;6.896;2023-07-13T05:06:31;16.38;;;4.22;;
59854;SDS011;45732;52.850;6.896;2023-07-13T05:08:57;11.07;;;4.22;;
59854;SDS011;45732;52.850;6.896;2023-07-13T05:11:23;14.32;;;4.00;;
59854;SDS011;45732;52.850;6.896;2023-07-13T05:13:49;12.40;;;4.18;;
59854;SDS011;45732;52.850;6.896;2023-07-13T05:16:14;11.50;;;4.05;;
59854;SDS011;45732;52.850;6.896;2023-07-13T05:18:40;13.13;;;4.13;;
59854;SDS011;45732;52.850;6.896;2023-07-13T05:21:07;10.95;;;4.00;;
59854;SDS011;45732;52.850;6.896;2023-07-13T05:23:34;14.07;;;4.60;;
59854;SDS011;45732;52.850;6.896;2023-07-13T05:26:01;12.60;;;4.00;;
59854;SDS011;45732;52.850;6.896;2023-07-13T05:28:27;13.25;;;4.30;;
59854;SDS011;45732;52.850;6.896;2023-07-13T05:30:55;14.55;;;4.95;;
59854;SDS011;45732;52.850;6.896;2023-07-13T05:33:20;12.80;;;3.60;;
59854;SDS011;45732;52.850;6.896;2023-07-13T05:35:46;12.43;;;4.18;;
59854;SDS011;45732;52.850;6.896;2023-07-13T05:38:12;12.73;;;4.72;;
59854;SDS011;45732;52.850;6.896;2023-07-13T05:40:38;11.80;;;4.13;;
59854;SDS011;45732;52.850;6.896;2023-07-13T05:43:04;13.77;;;4.30;;
59854;SDS011;45732;52.850;6.896;2023-07-13T05:45:30;13.50;;;4.57;;
59854;SDS011;45732;52.850;6.896;2023-07-13T05:47:55;11.95;;;3.88;;
59854;SDS011;45732;52.850;6.896;2023-07-13T05:50:21;11.63;;;4.43;;
59854;SDS011;45732;52.850;6.896;2023-07-13T05:52:47;11.68;;;4.50;;
59854;SDS011;45732;52.850;6.896;2023-07-13T05:55:12;13.27;;;4.32;;
59854;SDS011;45732;52.850;6.896;2023-07-13T05:57:38;13.13;;;4.40;;
59854;SDS011;45732;52.850;6.896;2023-07-13T06:00:04;14.95;;;4.53;;
59854;SDS011;45732;52.850;6.896;2023-07-13T06:02:30;14.77;;;4.72;;
59854;SDS011;45732;52.850;6.896;2023-07-13T06:04:56;12.85;;;3.90;;
59854;SDS011;45732;52.850;6.896;2023-07-13T06:07:22;16.10;;;5.22;;
59854;SDS011;45732;52.850;6.896;2023-07-13T06:09:47;15.52;;;4.30;;
59854;SDS011;45732;52.850;6.896;2023-07-13T06:12:13;14.18;;;4.40;;
59854;SDS011;45732;52.850;6.896;2023-07-13T06:14:39;13.65;;;4.30;;
59854;SDS011;45732;52.850;6.896;2023-07-13T06:17:04;14.52;;;4.40;;
59854;SDS011;45732;52.850;6.896;2023-07-13T06:19:31;18.52;;;4.53;;
59854;SDS011;45732;52.850;6.896;2023-07-13T06:21:57;12.70;;;4.07;;
59854;SDS011;45732;52.850;6.896;2023-07-13T06:24:24;13.05;;;3.95;;
59854;SDS011;45732;52.850;6.896;2023-07-13T06:26:49;13.93;;;4.45;;
59854;SDS011;45732;52.850;6.896;2023-07-13T06:29:15;12.63;;;3.88;;
59854;SDS011;45732;52.850;6.896;2023-07-13T06:31:41;13.52;;;4.40;;
59854;SDS011;45732;52.850;6.896;2023-07-13T06:34:07;13.23;;;4.20;;
59854;SDS011;45732;52.850;6.896;2023-07-13T06:36:33;13.40;;;4.93;;
59854;SDS011;45732;52.850;6.896;2023-07-13T06:38:59;13.45;;;4.68;;
59854;SDS011;45732;52.850;6.896;2023-07-13T06:41:24;16.30;;;4.85;;
59854;SDS011;45732;52.850;6.896;2023-07-13T06:43:53;12.32;;;3.90;;
59854;SDS011;45732;52.850;6.896;2023-07-13T06:46:22;13.07;;;4.18;;
59854;SDS011;45732;52.850;6.896;2023-07-13T06:48:48;14.85;;;4.10;;
59854;SDS011;45732;52.850;6.896;2023-07-13T06:51:14;12.50;;;4.13;;
59854;SDS011;45732;52.850;6.896;2023-07-13T06:53:40;15.18;;;4.43;;
59854;SDS011;45732;52.850;6.896;2023-07-13T06:56:05;12.73;;;3.90;;
59854;SDS011;45732;52.850;6.896;2023-07-13T06:58:33;12.48;;;3.83;;
59854;SDS011;45732;52.850;6.896;2023-07-13T07:00:59;11.13;;;3.65;;
59854;SDS011;45732;52.850;6.896;2023-07-13T07:03:24;11.88;;;3.42;;
59854;SDS011;45732;52.850;6.896;2023-07-13T07:05:50;10.60;;;3.70;;
59854;SDS011;45732;52.850;6.896;2023-07-13T07:08:16;11.05;;;4.07;;
59854;SDS011;45732;52.850;6.896;2023-07-13T07:10:42;10.90;;;3.70;;
59854;SDS011;45732;52.850;6.896;2023-07-13T07:13:08;11.88;;;4.15;;
59854;SDS011;45732;52.850;6.896;2023-07-13T07:15:34;9.57;;;3.95;;
59854;SDS011;45732;52.850;6.896;2023-07-13T07:18:00;12.85;;;4.18;;
59854;SDS011;45732;52.850;6.896;2023-07-13T07:20:26;12.45;;;3.63;;
59854;SDS011;45732;52.850;6.896;2023-07-13T07:22:52;9.73;;;3.53;;
59854;SDS011;45732;52.850;6.896;2023-07-13T07:25:18;14.30;;;4.30;;
59854;SDS011;45732;52.850;6.896;2023-07-13T07:27:44;10.70;;;3.95;;
59854;SDS011;45732;52.850;6.896;2023-07-13T07:30:10;11.60;;;3.90;;
59854;SDS011;45732;52.850;6.896;2023-07-13T07:32:37;11.55;;;4.18;;
59854;SDS011;45732;52.850;6.896;2023-07-13T07:35:02;9.80;;;3.67;;
59854;SDS011;45732;52.850;6.896;2023-07-13T07:37:28;10.55;;;4.07;;
59854;SDS011;45732;52.850;6.896;2023-07-13T07:39:54;12.05;;;3.50;;
59854;SDS011;45732;52.850;6.896;2023-07-13T07:42:20;11.15;;;3.50;;
59854;SDS011;45732;52.850;6.896;2023-07-13T07:44:46;12.02;;;3.60;;
59854;SDS011;45732;52.850;6.896;2023-07-13T07:47:11;12.40;;;3.67;;
59854;SDS011;45732;52.850;6.896;2023-07-13T07:49:37;12.50;;;3.72;;
59854;SDS011;45732;52.850;6.896;2023-07-13T07:52:03;11.73;;;3.80;;
59854;SDS011;45732;52.850;6.896;2023-07-13T07:54:29;13.05;;;4.05;;
59854;SDS011;45732;52.850;6.896;2023-07-13T07:56:55;12.23;;;3.80;;
59854;SDS011;45732;52.850;6.896;2023-07-13T07:59:21;10.80;;;3.70;;
59854;SDS011;45732;52.850;6.896;2023-07-13T08:01:46;10.38;;;3.53;;
59854;SDS011;45732;52.850;6.896;2023-07-13T08:04:15;12.40;;;4.15;;
59854;SDS011;45732;52.850;6.896;2023-07-13T08:06:41;11.63;;;4.28;;
59854;SDS011;45732;52.850;6.896;2023-07-13T08:09:07;11.48;;;3.83;;
59854;SDS011;45732;52.850;6.896;2023-07-13T08:11:33;13.02;;;3.95;;
59854;SDS011;45732;52.850;6.896;2023-07-13T08:13:59;11.57;;;4.03;;
59854;SDS011;45732;52.850;6.896;2023-07-13T08:16:25;12.43;;;3.85;;
59854;SDS011;45732;52.850;6.896;2023-07-13T08:18:51;11.13;;;4.45;;
59854;SDS011;45732;52.850;6.896;2023-07-13T08:21:17;11.90;;;4.30;;
59854;SDS011;45732;52.850;6.896;2023-07-13T08:23:45;14.50;;;4.53;;
59854;SDS011;45732;52.850;6.896;2023-07-13T08:26:11;12.93;;;4.28;;
59854;SDS011;45732;52.850;6.896;2023-07-13T08:28:37;18.70;;;4.88;;
59854;SDS011;45732;52.850;6.896;2023-07-13T08:31:03;15.18;;;5.35;;
59854;SDS011;45732;52.850;6.896;2023-07-13T08:33:30;16.17;;;4.70;;
59854;SDS011;45732;52.850;6.896;2023-07-13T08:35:56;15.73;;;4.57;;
59854;SDS011;45732;52.850;6.896;2023-07-13T08:38:22;13.57;;;4.63;;
59854;SDS011;45732;52.850;6.896;2023-07-13T08:40:51;17.85;;;5.38;;
59854;SDS011;45732;52.850;6.896;2023-07-13T08:43:19;13.50;;;4.72;;
59854;SDS011;45732;52.850;6.896;2023-07-13T08:45:51;11.20;;;4.68;;
59854;SDS011;45732;52.850;6.896;2023-07-13T08:48:24;13.07;;;4.25;;
59854;SDS011;45732;52.850;6.896;2023-07-13T08:53:22;13.00;;;4.55;;
59854;SDS011;45732;52.850;6.896;2023-07-13T08:55:51;15.68;;;5.32;;
59854;SDS011;45732;52.850;6.896;2023-07-13T08:58:23;13.38;;;4.78;;
59854;SDS011;45732;52.850;6.896;2023-07-13T09:01:00;14.33;;;5.50;;
59854;SDS011;45732;52.850;6.896;2023-07-13T09:03:45;13.70;;;5.20;;
59854;SDS011;45732;52.850;6.896;2023-07-13T09:06:16;11.98;;;4.20;;
59854;SDS011;45732;52.850;6.896;2023-07-13T09:11:36;10.13;;;2.80;;
59854;SDS011;45732;52.850;6.896;2023-07-13T09:14:25;9.52;;;3.00;;
59854;SDS011;45732;52.850;6.896;2023-07-13T09:17:14;10.05;;;3.30;;
59854;SDS011;45732;52.850;6.896;2023-07-13T09:19:48;7.22;;;2.50;;
59854;SDS011;45732;52.850;6.896;2023-07-13T09:22:20;8.10;;;3.15;;
59854;SDS011;45732;52.850;6.896;2023-07-13T09:24:51;10.65;;;3.88;;
59854;SDS011;45732;52.850;6.896;2023-07-13T09:27:22;9.32;;;3.60;;
59854;SDS011;45732;52.850;6.896;2023-07-13T09:29:54;8.20;;;3.63;;
59854;SDS011;45732;52.850;6.896;2023-07-13T09:32:41;5.90;;;2.20;;
59854;SDS011;45732;52.850;6.896;2023-07-13T09:35:15;8.43;;;2.20;;
59854;SDS011;45732;52.850;6.896;2023-07-13T09:37:44;8.90;;;2.53;;
59854;SDS011;45732;52.850;6.896;2023-07-13T09:40:14;6.97;;;3.03;;
59854;SDS011;45732;52.850;6.896;2023-07-13T09:42:48;4.78;;;2.20;;
59854;SDS011;45732;52.850;6.896;2023-07-13T09:45:17;7.82;;;3.25;;
59854;SDS011;45732;52.850;6.896;2023-07-13T09:47:58;5.70;;;2.50;;
59854;SDS011;45732;52.850;6.896;2023-07-13T09:50:31;5.47;;;2.22;;
59854;SDS011;45732;52.850;6.896;2023-07-13T09:52:57;7.70;;;2.58;;
59854;SDS011;45732;52.850;6.896;2023-07-13T09:57:54;5.20;;;2.70;;
59854;SDS011;45732;52.850;6.896;2023-07-13T10:00:25;6.93;;;2.30;;
59854;SDS011;45732;52.850;6.896;2023-07-13T10:05:28;4.10;;;1.80;;
59854;SDS011;45732;52.850;6.896;2023-07-13T10:08:09;3.47;;;1.60;;
59854;SDS011;45732;52.850;6.896;2023-07-13T10:11:02;4.15;;;1.50;;
59854;SDS011;45732;52.850;6.896;2023-07-13T10:13:37;2.65;;;1.63;;
59854;SDS011;45732;52.850;6.896;2023-07-13T10:16:07;4.63;;;1.90;;
59854;SDS011;45732;52.850;6.896;2023-07-13T10:18:39;4.10;;;1.90;;
59854;SDS011;45732;52.850;6.896;2023-07-13T10:21:10;4.03;;;2.00;;
59854;SDS011;45732;52.850;6.896;2023-07-13T10:23:38;3.80;;;1.77;;
59854;SDS011;45732;52.850;6.896;2023-07-13T10:26:04;3.45;;;1.80;;
59854;SDS011;45732;52.850;6.896;2023-07-13T10:28:36;3.00;;;1.90;;
59854;SDS011;45732;52.850;6.896;2023-07-13T10:31:04;2.80;;;1.60;;
59854;SDS011;45732;52.850;6.896;2023-07-13T10:33:36;3.42;;;1.48;;
59854;SDS011;45732;52.850;6.896;2023-07-13T10:39:04;4.68;;;2.05;;
59854;SDS011;45732;52.850;6.896;2023-07-13T10:41:33;6.00;;;2.10;;
59854;SDS011;45732;52.850;6.896;2023-07-13T10:44:04;5.65;;;2.30;;
59854;SDS011;45732;52.850;6.896;2023-07-13T10:46:32;5.45;;;2.40;;
59854;SDS011;45732;52.850;6.896;2023-07-13T10:48:59;4.22;;;2.45;;
59854;SDS011;45732;52.850;6.896;2023-07-13T10:51:30;5.55;;;2.70;;
59854;SDS011;45732;52.850;6.896;2023-07-13T10:56:48;7.22;;;3.35;;
59854;SDS011;45732;52.850;6.896;2023-07-13T10:59:23;5.00;;;2.90;;
59854;SDS011;45732;52.850;6.896;2023-07-13T11:01:55;9.02;;;3.20;;
59854;SDS011;45732;52.850;6.896;2023-07-13T11:04:23;7.65;;;4.07;;
59854;SDS011;45732;52.850;6.896;2023-07-13T11:06:52;7.55;;;3.65;;
59854;SDS011;45732;52.850;6.896;2023-07-13T11:09:36;7.60;;;3.88;;
59854;SDS011;45732;52.850;6.896;2023-07-13T11:12:48;8.95;;;3.92;;
59854;SDS011;45732;52.850;6.896;2023-07-13T11:15:12;8.38;;;3.75;;
59854;SDS011;45732;52.850;6.896;2023-07-13T11:17:48;8.93;;;3.75;;
59854;SDS011;45732;52.850;6.896;2023-07-13T11:30:41;8.07;;;3.70;;
59854;SDS011;45732;52.850;6.896;2023-07-13T11:33:17;6.97;;;3.58;;
59854;SDS011;45732;52.850;6.896;2023-07-13T11:38:23;8.93;;;4.35;;
59854;SDS011;45732;52.850;6.896;2023-07-13T11:40:53;9.35;;;3.22;;
59854;SDS011;45732;52.850;6.896;2023-07-13T11:43:20;7.80;;;2.97;;
59854;SDS011;45732;52.850;6.896;2023-07-13T11:45:49;6.63;;;2.92;;
59854;SDS011;45732;52.850;6.896;2023-07-13T11:50:48;6.07;;;3.33;;
59854;SDS011;45732;52.850;6.896;2023-07-13T11:53:32;5.95;;;3.15;;
59854;SDS011;45732;52.850;6.896;2023-07-13T11:56:05;4.53;;;2.58;;
59854;SDS011;45732;52.850;6.896;2023-07-13T11:58:31;5.57;;;2.85;;
59854;SDS011;45732;52.850;6.896;2023-07-13T12:00:58;4.28;;;2.45;;
59854;SDS011;45732;52.850;6.896;2023-07-13T12:03:27;4.55;;;2.53;;
59854;SDS011;45732;52.850;6.896;2023-07-13T12:08:28;4.00;;;2.67;;
59854;SDS011;45732;52.850;6.896;2023-07-13T12:10:59;5.57;;;2.88;;
59854;SDS011;45732;52.850;6.896;2023-07-13T12:13:34;6.03;;;3.17;;
59854;SDS011;45732;52.850;6.896;2023-07-13T12:16:01;6.70;;;3.53;;
59854;SDS011;45732;52.850;6.896;2023-07-13T12:18:30;8.60;;;3.40;;
59854;SDS011;45732;52.850;6.896;2023-07-13T12:20:59;8.85;;;3.30;;
59854;SDS011;45732;52.850;6.896;2023-07-13T12:25:55;10.25;;;3.72;;
59854;SDS011;45732;52.850;6.896;2023-07-13T12:33:58;8.02;;;3.70;;
59854;SDS011;45732;52.850;6.896;2023-07-13T12:36:26;6.20;;;3.13;;
59854;SDS011;45732;52.850;6.896;2023-07-13T12:38:54;7.05;;;3.20;;
59854;SDS011;45732;52.850;6.896;2023-07-13T12:41:28;7.85;;;3.60;;
59854;SDS011;45732;52.850;6.896;2023-07-13T12:43:54;8.93;;;3.15;;
59854;SDS011;45732;52.850;6.896;2023-07-13T12:46:21;7.95;;;3.55;;
59854;SDS011;45732;52.850;6.896;2023-07-13T12:48:54;7.85;;;3.60;;
59854;SDS011;45732;52.850;6.896;2023-07-13T12:51:26;10.63;;;3.40;;
59854;SDS011;45732;52.850;6.896;2023-07-13T12:54:04;6.30;;;3.35;;
59854;SDS011;45732;52.850;6.896;2023-07-13T12:59:02;9.25;;;3.05;;
59854;SDS011;45732;52.850;6.896;2023-07-13T13:01:32;7.93;;;3.00;;
59854;SDS011;45732;52.850;6.896;2023-07-13T13:04:01;8.32;;;2.88;;
59854;SDS011;45732;52.850;6.896;2023-07-13T13:06:34;10.02;;;2.92;;
59854;SDS011;45732;52.850;6.896;2023-07-13T13:09:01;10.32;;;2.90;;
59854;SDS011;45732;52.850;6.896;2023-07-13T13:11:29;7.20;;;2.80;;
59854;SDS011;45732;52.850;6.896;2023-07-13T13:13:56;6.95;;;2.97;;
59854;SDS011;45732;52.850;6.896;2023-07-13T13:16:23;6.72;;;2.65;;
59854;SDS011;45732;52.850;6.896;2023-07-13T13:18:57;6.18;;;2.00;;
59854;SDS011;45732;52.850;6.896;2023-07-13T13:21:27;5.47;;;1.90;;
59854;SDS011;45732;52.850;6.896;2023-07-13T13:23:53;4.53;;;1.40;;
59854;SDS011;45732;52.850;6.896;2023-07-13T13:26:19;5.28;;;1.40;;
59854;SDS011;45732;52.850;6.896;2023-07-13T13:28:47;6.03;;;1.80;;
59854;SDS011;45732;52.850;6.896;2023-07-13T13:31:13;7.05;;;1.50;;
59854;SDS011;45732;52.850;6.896;2023-07-13T13:33:43;5.90;;;1.70;;
59854;SDS011;45732;52.850;6.896;2023-07-13T13:36:28;4.05;;;1.52;;
59854;SDS011;45732;52.850;6.896;2023-07-13T13:38:55;3.58;;;1.48;;
59854;SDS011;45732;52.850;6.896;2023-07-13T13:41:21;7.03;;;1.63;;
59854;SDS011;45732;52.850;6.896;2023-07-13T13:43:47;5.85;;;2.03;;
59854;SDS011;45732;52.850;6.896;2023-07-13T13:46:16;4.45;;;1.83;;
59854;SDS011;45732;52.850;6.896;2023-07-13T13:48:46;5.00;;;1.73;;
59854;SDS011;45732;52.850;6.896;2023-07-13T13:51:16;6.63;;;1.58;;
59854;SDS011;45732;52.850;6.896;2023-07-13T13:56:11;7.75;;;1.92;;
59854;SDS011;45732;52.850;6.896;2023-07-13T13:58:40;4.05;;;1.20;;
59854;SDS011;45732;52.850;6.896;2023-07-13T14:01:13;4.75;;;1.33;;
59854;SDS011;45732;52.850;6.896;2023-07-13T14:03:43;5.82;;;1.70;;
59854;SDS011;45732;52.850;6.896;2023-07-13T14:06:12;5.20;;;1.63;;
59854;SDS011;45732;52.850;6.896;2023-07-13T14:08:40;4.68;;;1.63;;
59854;SDS011;45732;52.850;6.896;2023-07-13T14:11:07;4.65;;;1.52;;
59854;SDS011;45732;52.850;6.896;2023-07-13T14:13:38;4.55;;;1.30;;
59854;SDS011;45732;52.850;6.896;2023-07-13T14:16:11;4.35;;;1.50;;
59854;SDS011;45732;52.850;6.896;2023-07-13T14:18:39;4.60;;;1.55;;
59854;SDS011;45732;52.850;6.896;2023-07-13T14:21:09;5.43;;;1.48;;
59854;SDS011;45732;52.850;6.896;2023-07-13T14:23:38;5.07;;;1.50;;
59854;SDS011;45732;52.850;6.896;2023-07-13T14:26:08;4.70;;;1.48;;
59854;SDS011;45732;52.850;6.896;2023-07-13T14:28:43;5.57;;;1.52;;
59854;SDS011;45732;52.850;6.896;2023-07-13T14:31:14;6.03;;;1.40;;
59854;SDS011;45732;52.850;6.896;2023-07-13T14:33:41;5.50;;;1.45;;
59854;SDS011;45732;52.850;6.896;2023-07-13T14:38:57;8.68;;;1.50;;
59854;SDS011;45732;52.850;6.896;2023-07-13T14:41:25;2.47;;;1.15;;
59854;SDS011;45732;52.850;6.896;2023-07-13T14:43:52;4.60;;;1.20;;
59854;SDS011;45732;52.850;6.896;2023-07-13T14:46:30;7.18;;;1.48;;
59854;SDS011;45732;52.850;6.896;2023-07-13T14:49:00;4.85;;;1.23;;
59854;SDS011;45732;52.850;6.896;2023-07-13T14:51:31;5.53;;;1.40;;
59854;SDS011;45732;52.850;6.896;2023-07-13T14:54:00;6.53;;;1.70;;
59854;SDS011;45732;52.850;6.896;2023-07-13T14:56:28;4.10;;;1.25;;
59854;SDS011;45732;52.850;6.896;2023-07-13T14:58:54;5.28;;;1.40;;
59854;SDS011;45732;52.850;6.896;2023-07-13T15:01:19;4.97;;;1.40;;
59854;SDS011;45732;52.850;6.896;2023-07-13T15:03:48;4.60;;;1.40;;
59854;SDS011;45732;52.850;6.896;2023-07-13T15:06:16;5.03;;;1.40;;
59854;SDS011;45732;52.850;6.896;2023-07-13T15:08:42;4.47;;;1.60;;
59854;SDS011;45732;52.850;6.896;2023-07-13T15:11:08;3.95;;;1.30;;
59854;SDS011;45732;52.850;6.896;2023-07-13T15:13:40;5.45;;;1.48;;
59854;SDS011;45732;52.850;6.896;2023-07-13T15:16:16;6.03;;;1.50;;
59854;SDS011;45732;52.850;6.896;2023-07-13T15:18:45;4.57;;;1.50;;
59854;SDS011;45732;52.850;6.896;2023-07-13T15:21:13;4.95;;;1.50;;
59854;SDS011;45732;52.850;6.896;2023-07-13T15:23:44;4.20;;;1.40;;
59854;SDS011;45732;52.850;6.896;2023-07-13T15:26:13;7.07;;;1.45;;
59854;SDS011;45732;52.850;6.896;2023-07-13T15:28:41;6.28;;;1.48;;
59854;SDS011;45732;52.850;6.896;2023-07-13T15:33:48;6.18;;;1.90;;
59854;SDS011;45732;52.850;6.896;2023-07-13T15:36:15;8.18;;;2.05;;
59854;SDS011;45732;52.850;6.896;2023-07-13T15:38:42;7.05;;;1.90;;
59854;SDS011;45732;52.850;6.896;2023-07-13T15:41:14;6.30;;;1.60;;
59854;SDS011;45732;52.850;6.896;2023-07-13T15:43:46;6.18;;;1.85;;